sensor_id;sensor_type;location;lat;lon;timestamp;temperature;humidity
18611;DHT22;9435;52.122;5.502;2023-06-04T00:02:11;12.50;99.90
18611;DHT22;9435;52.122;5.502;2023-06-04T00:04:38;12.40;99.90
18611;DHT22;9435;52.122;5.502;2023-06-04T00:07:06;12.30;99.90
18611;DHT22;9435;52.122;5.502;2023-06-04T00:09:33;12.30;99.90
18611;DHT22;9435;52.122;5.502;2023-06-04T00:12:01;12.20;99.90
18611;DHT22;9435;52.122;5.502;2023-06-04T00:14:28;12.10;99.90
18611;DHT22;9435;52.122;5.502;2023-06-04T00:16:55;12.00;99.90
18611;DHT22;9435;52.122;5.502;2023-06-04T00:19:22;12.10;99.90
18611;DHT22;9435;52.122;5.502;2023-06-04T00:21:50;12.10;99.90
18611;DHT22;9435;52.122;5.502;2023-06-04T00:24:17;11.90;99.90
18611;DHT22;9435;52.122;5.502;2023-06-04T00:26:44;11.90;99.90
18611;DHT22;9435;52.122;5.502;2023-06-04T00:29:13;11.80;99.90
18611;DHT22;9435;52.122;5.502;2023-06-04T00:31:40;11.80;99.90
18611;DHT22;9435;52.122;5.502;2023-06-04T00:34:07;11.70;99.90
18611;DHT22;9435;52.122;5.502;2023-06-04T00:36:34;11.70;99.90
18611;DHT22;9435;52.122;5.502;2023-06-04T00:39:01;11.60;99.90
18611;DHT22;9435;52.122;5.502;2023-06-04T00:41:28;11.50;99.90
18611;DHT22;9435;52.122;5.502;2023-06-04T00:43:55;11.40;99.90
18611;DHT22;9435;52.122;5.502;2023-06-04T00:46:25;11.40;99.90
18611;DHT22;9435;52.122;5.502;2023-06-04T00:48:52;11.40;99.90
18611;DHT22;9435;52.122;5.502;2023-06-04T00:51:20;11.50;99.90
18611;DHT22;9435;52.122;5.502;2023-06-04T00:53:48;11.50;99.90
18611;DHT22;9435;52.122;5.502;2023-06-04T00:56:15;11.50;99.90
18611;DHT22;9435;52.122;5.502;2023-06-04T00:58:42;11.40;99.90
18611;DHT22;9435;52.122;5.502;2023-06-04T01:01:17;11.40;99.90
18611;DHT22;9435;52.122;5.502;2023-06-04T01:03:51;11.40;99.90
18611;DHT22;9435;52.122;5.502;2023-06-04T01:06:25;11.40;99.90
18611;DHT22;9435;52.122;5.502;2023-06-04T01:08:58;11.50;99.90
18611;DHT22;9435;52.122;5.502;2023-06-04T01:11:35;11.50;99.90
18611;DHT22;9435;52.122;5.502;2023-06-04T01:14:03;11.50;99.90
18611;DHT22;9435;52.122;5.502;2023-06-04T01:16:35;11.50;99.90
18611;DHT22;9435;52.122;5.502;2023-06-04T01:19:11;11.50;99.90
18611;DHT22;9435;52.122;5.502;2023-06-04T01:21:48;11.30;99.90
18611;DHT22;9435;52.122;5.502;2023-06-04T01:24:21;11.30;99.90
18611;DHT22;9435;52.122;5.502;2023-06-04T01:26:52;11.20;99.90
18611;DHT22;9435;52.122;5.502;2023-06-04T01:29:22;11.30;99.90
18611;DHT22;9435;52.122;5.502;2023-06-04T01:31:50;11.20;99.90
18611;DHT22;9435;52.122;5.502;2023-06-04T01:34:19;11.30;99.90
18611;DHT22;9435;52.122;5.502;2023-06-04T01:36:46;11.30;99.90
18611;DHT22;9435;52.122;5.502;2023-06-04T01:39:13;11.30;99.90
18611;DHT22;9435;52.122;5.502;2023-06-04T01:41:40;11.30;99.90
18611;DHT22;9435;52.122;5.502;2023-06-04T01:44:07;11.30;99.90
18611;DHT22;9435;52.122;5.502;2023-06-04T01:46:34;11.30;99.90
18611;DHT22;9435;52.122;5.502;2023-06-04T01:49:02;11.30;99.90
18611;DHT22;9435;52.122;5.502;2023-06-04T01:51:30;11.40;99.90
18611;DHT22;9435;52.122;5.502;2023-06-04T01:53:58;11.40;99.90
18611;DHT22;9435;52.122;5.502;2023-06-04T01:56:26;11.40;99.90
18611;DHT22;9435;52.122;5.502;2023-06-04T01:58:53;11.40;99.90
18611;DHT22;9435;52.122;5.502;2023-06-04T02:01:21;11.40;99.90
18611;DHT22;9435;52.122;5.502;2023-06-04T02:03:48;11.20;99.90
18611;DHT22;9435;52.122;5.502;2023-06-04T02:06:15;11.10;99.90
18611;DHT22;9435;52.122;5.502;2023-06-04T02:08:43;11.10;99.90
18611;DHT22;9435;52.122;5.502;2023-06-04T02:11:11;11.00;99.90
18611;DHT22;9435;52.122;5.502;2023-06-04T02:13:38;11.10;99.90
18611;DHT22;9435;52.122;5.502;2023-06-04T02:16:05;11.00;99.90
18611;DHT22;9435;52.122;5.502;2023-06-04T02:18:32;11.10;99.90
18611;DHT22;9435;52.122;5.502;2023-06-04T02:20:59;11.00;99.90
18611;DHT22;9435;52.122;5.502;2023-06-04T02:23:26;11.00;99.90
18611;DHT22;9435;52.122;5.502;2023-06-04T02:25:55;11.00;99.90
18611;DHT22;9435;52.122;5.502;2023-06-04T02:28:22;10.90;99.90
18611;DHT22;9435;52.122;5.502;2023-06-04T02:30:50;10.90;99.90
18611;DHT22;9435;52.122;5.502;2023-06-04T02:33:17;10.90;99.90
18611;DHT22;9435;52.122;5.502;2023-06-04T02:35:44;10.80;99.90
18611;DHT22;9435;52.122;5.502;2023-06-04T02:38:11;10.80;99.90
18611;DHT22;9435;52.122;5.502;2023-06-04T02:40:38;10.70;99.90
18611;DHT22;9435;52.122;5.502;2023-06-04T02:43:07;10.80;99.90
18611;DHT22;9435;52.122;5.502;2023-06-04T02:45:34;10.70;99.90
18611;DHT22;9435;52.122;5.502;2023-06-04T02:48:01;10.70;99.90
18611;DHT22;9435;52.122;5.502;2023-06-04T02:50:28;10.60;99.90
18611;DHT22;9435;52.122;5.502;2023-06-04T02:52:55;10.70;99.90
18611;DHT22;9435;52.122;5.502;2023-06-04T02:55:22;10.60;99.90
18611;DHT22;9435;52.122;5.502;2023-06-04T02:57:49;10.60;99.90
18611;DHT22;9435;52.122;5.502;2023-06-04T03:00:19;10.60;99.90
18611;DHT22;9435;52.122;5.502;2023-06-04T03:02:47;10.50;99.90
18611;DHT22;9435;52.122;5.502;2023-06-04T03:05:16;10.50;99.90
18611;DHT22;9435;52.122;5.502;2023-06-04T03:07:45;10.50;99.90
18611;DHT22;9435;52.122;5.502;2023-06-04T03:10:13;10.60;99.90
18611;DHT22;9435;52.122;5.502;2023-06-04T03:12:41;10.50;99.90
18611;DHT22;9435;52.122;5.502;2023-06-04T03:15:08;10.50;99.90
18611;DHT22;9435;52.122;5.502;2023-06-04T03:17:37;10.50;99.90
18611;DHT22;9435;52.122;5.502;2023-06-04T03:20:05;10.40;99.90
18611;DHT22;9435;52.122;5.502;2023-06-04T03:22:33;10.50;99.90
18611;DHT22;9435;52.122;5.502;2023-06-04T03:25:01;10.30;99.90
18611;DHT22;9435;52.122;5.502;2023-06-04T03:27:29;10.30;99.90
18611;DHT22;9435;52.122;5.502;2023-06-04T03:29:57;10.30;99.90
18611;DHT22;9435;52.122;5.502;2023-06-04T03:32:24;10.20;99.90
18611;DHT22;9435;52.122;5.502;2023-06-04T03:34:53;10.20;99.90
18611;DHT22;9435;52.122;5.502;2023-06-04T03:37:20;10.20;99.90
18611;DHT22;9435;52.122;5.502;2023-06-04T03:39:47;10.10;99.90
18611;DHT22;9435;52.122;5.502;2023-06-04T03:42:14;10.00;99.90
18611;DHT22;9435;52.122;5.502;2023-06-04T03:44:41;10.10;99.90
18611;DHT22;9435;52.122;5.502;2023-06-04T03:47:08;10.10;99.90
18611;DHT22;9435;52.122;5.502;2023-06-04T03:49:35;10.10;99.90
18611;DHT22;9435;52.122;5.502;2023-06-04T03:52:04;10.10;99.90
18611;DHT22;9435;52.122;5.502;2023-06-04T03:54:31;10.10;99.90
18611;DHT22;9435;52.122;5.502;2023-06-04T03:56:58;10.10;99.90
18611;DHT22;9435;52.122;5.502;2023-06-04T03:59:25;10.00;99.90
18611;DHT22;9435;52.122;5.502;2023-06-04T04:01:53;9.90;99.90
18611;DHT22;9435;52.122;5.502;2023-06-04T04:04:20;9.90;99.90
18611;DHT22;9435;52.122;5.502;2023-06-04T04:06:47;10.00;99.90
18611;DHT22;9435;52.122;5.502;2023-06-04T04:09:16;10.10;99.90
18611;DHT22;9435;52.122;5.502;2023-06-04T04:11:43;10.10;99.90
18611;DHT22;9435;52.122;5.502;2023-06-04T04:14:10;10.30;99.90
18611;DHT22;9435;52.122;5.502;2023-06-04T04:16:37;10.50;99.90
18611;DHT22;9435;52.122;5.502;2023-06-04T04:19:04;10.60;99.90
18611;DHT22;9435;52.122;5.502;2023-06-04T04:21:33;10.70;99.90
18611;DHT22;9435;52.122;5.502;2023-06-04T04:24:02;10.90;99.90
18611;DHT22;9435;52.122;5.502;2023-06-04T04:26:30;11.10;99.90
18611;DHT22;9435;52.122;5.502;2023-06-04T04:28:58;11.20;99.90
18611;DHT22;9435;52.122;5.502;2023-06-04T04:31:26;11.40;99.90
18611;DHT22;9435;52.122;5.502;2023-06-04T04:33:55;11.60;99.90
18611;DHT22;9435;52.122;5.502;2023-06-04T04:36:22;11.70;99.90
18611;DHT22;9435;52.122;5.502;2023-06-04T04:38:49;11.70;99.90
18611;DHT22;9435;52.122;5.502;2023-06-04T04:41:19;11.70;99.90
18611;DHT22;9435;52.122;5.502;2023-06-04T04:43:52;11.80;99.90
18611;DHT22;9435;52.122;5.502;2023-06-04T04:46:19;11.70;99.90
18611;DHT22;9435;52.122;5.502;2023-06-04T04:48:46;11.80;99.90
18611;DHT22;9435;52.122;5.502;2023-06-04T04:51:13;12.00;99.90
18611;DHT22;9435;52.122;5.502;2023-06-04T04:53:40;12.20;99.90
18611;DHT22;9435;52.122;5.502;2023-06-04T04:56:08;12.10;99.90
18611;DHT22;9435;52.122;5.502;2023-06-04T04:58:35;12.20;99.90
18611;DHT22;9435;52.122;5.502;2023-06-04T05:01:03;12.20;99.90
18611;DHT22;9435;52.122;5.502;2023-06-04T05:03:31;12.00;99.90
18611;DHT22;9435;52.122;5.502;2023-06-04T05:05:58;12.00;99.90
18611;DHT22;9435;52.122;5.502;2023-06-04T05:08:25;12.10;99.90
18611;DHT22;9435;52.122;5.502;2023-06-04T05:10:52;12.10;99.90
18611;DHT22;9435;52.122;5.502;2023-06-04T05:13:19;12.10;99.90
18611;DHT22;9435;52.122;5.502;2023-06-04T05:15:46;12.10;99.90
18611;DHT22;9435;52.122;5.502;2023-06-04T05:18:15;12.20;99.90
18611;DHT22;9435;52.122;5.502;2023-06-04T05:20:46;12.30;99.90
18611;DHT22;9435;52.122;5.502;2023-06-04T05:23:13;12.30;99.90
18611;DHT22;9435;52.122;5.502;2023-06-04T05:25:40;12.40;99.90
18611;DHT22;9435;52.122;5.502;2023-06-04T05:28:08;12.40;99.90
18611;DHT22;9435;52.122;5.502;2023-06-04T05:30:36;12.60;99.90
18611;DHT22;9435;52.122;5.502;2023-06-04T05:33:07;12.70;99.90
18611;DHT22;9435;52.122;5.502;2023-06-04T05:35:45;12.90;99.90
18611;DHT22;9435;52.122;5.502;2023-06-04T05:38:13;12.90;99.90
18611;DHT22;9435;52.122;5.502;2023-06-04T05:40:44;13.00;99.90
18611;DHT22;9435;52.122;5.502;2023-06-04T05:43:11;13.20;99.90
18611;DHT22;9435;52.122;5.502;2023-06-04T05:45:38;13.30;99.90
18611;DHT22;9435;52.122;5.502;2023-06-04T05:48:05;13.40;99.90
18611;DHT22;9435;52.122;5.502;2023-06-04T05:50:33;13.60;99.90
18611;DHT22;9435;52.122;5.502;2023-06-04T05:53:01;13.50;99.90
18611;DHT22;9435;52.122;5.502;2023-06-04T05:55:28;13.80;99.90
18611;DHT22;9435;52.122;5.502;2023-06-04T05:57:56;14.00;99.90
18611;DHT22;9435;52.122;5.502;2023-06-04T06:00:23;14.30;99.90
18611;DHT22;9435;52.122;5.502;2023-06-04T06:02:50;14.30;99.90
18611;DHT22;9435;52.122;5.502;2023-06-04T06:05:18;14.60;99.90
18611;DHT22;9435;52.122;5.502;2023-06-04T06:07:45;14.50;99.90
18611;DHT22;9435;52.122;5.502;2023-06-04T06:10:14;14.70;99.90
18611;DHT22;9435;52.122;5.502;2023-06-04T06:12:41;14.60;99.90
18611;DHT22;9435;52.122;5.502;2023-06-04T06:15:09;14.60;99.90
18611;DHT22;9435;52.122;5.502;2023-06-04T06:17:38;14.80;99.90
18611;DHT22;9435;52.122;5.502;2023-06-04T06:20:06;15.00;99.90
18611;DHT22;9435;52.122;5.502;2023-06-04T06:22:33;15.30;99.90
18611;DHT22;9435;52.122;5.502;2023-06-04T06:25:01;15.20;99.90
18611;DHT22;9435;52.122;5.502;2023-06-04T06:27:30;15.20;99.90
18611;DHT22;9435;52.122;5.502;2023-06-04T06:29:57;15.20;99.90
18611;DHT22;9435;52.122;5.502;2023-06-04T06:32:24;15.10;99.90
18611;DHT22;9435;52.122;5.502;2023-06-04T06:34:51;15.10;99.90
18611;DHT22;9435;52.122;5.502;2023-06-04T06:37:19;15.40;99.90
18611;DHT22;9435;52.122;5.502;2023-06-04T06:39:46;15.40;99.90
18611;DHT22;9435;52.122;5.502;2023-06-04T06:42:13;15.60;99.90
18611;DHT22;9435;52.122;5.502;2023-06-04T06:44:44;15.90;99.90
18611;DHT22;9435;52.122;5.502;2023-06-04T06:47:11;15.90;99.90
18611;DHT22;9435;52.122;5.502;2023-06-04T06:49:39;16.10;99.90
18611;DHT22;9435;52.122;5.502;2023-06-04T06:52:06;16.10;99.90
18611;DHT22;9435;52.122;5.502;2023-06-04T06:54:33;16.50;99.90
18611;DHT22;9435;52.122;5.502;2023-06-04T06:57:00;16.20;99.90
18611;DHT22;9435;52.122;5.502;2023-06-04T06:59:28;16.40;99.90
18611;DHT22;9435;52.122;5.502;2023-06-04T07:01:57;16.30;99.90
18611;DHT22;9435;52.122;5.502;2023-06-04T07:04:24;16.40;99.90
18611;DHT22;9435;52.122;5.502;2023-06-04T07:06:51;16.60;99.90
18611;DHT22;9435;52.122;5.502;2023-06-04T07:09:18;16.80;99.90
18611;DHT22;9435;52.122;5.502;2023-06-04T07:11:46;17.10;99.90
18611;DHT22;9435;52.122;5.502;2023-06-04T07:14:13;16.90;99.90
18611;DHT22;9435;52.122;5.502;2023-06-04T07:16:40;16.70;99.90
18611;DHT22;9435;52.122;5.502;2023-06-04T07:19:09;17.00;99.90
18611;DHT22;9435;52.122;5.502;2023-06-04T07:21:36;17.10;99.90
18611;DHT22;9435;52.122;5.502;2023-06-04T07:24:03;17.50;99.90
18611;DHT22;9435;52.122;5.502;2023-06-04T07:26:31;17.50;99.90
18611;DHT22;9435;52.122;5.502;2023-06-04T07:28:58;17.60;99.90
18611;DHT22;9435;52.122;5.502;2023-06-04T07:31:25;17.60;99.90
18611;DHT22;9435;52.122;5.502;2023-06-04T07:33:53;18.10;99.90
18611;DHT22;9435;52.122;5.502;2023-06-04T07:36:21;18.20;99.90
18611;DHT22;9435;52.122;5.502;2023-06-04T07:38:48;17.90;99.90
18611;DHT22;9435;52.122;5.502;2023-06-04T07:41:15;17.70;99.90
18611;DHT22;9435;52.122;5.502;2023-06-04T07:43:43;18.00;99.90
18611;DHT22;9435;52.122;5.502;2023-06-04T07:46:10;17.90;99.90
18611;DHT22;9435;52.122;5.502;2023-06-04T07:48:37;17.90;99.90
18611;DHT22;9435;52.122;5.502;2023-06-04T07:51:04;18.20;99.90
18611;DHT22;9435;52.122;5.502;2023-06-04T07:53:32;18.40;99.90
18611;DHT22;9435;52.122;5.502;2023-06-04T07:56:01;18.20;99.90
18611;DHT22;9435;52.122;5.502;2023-06-04T07:58:28;18.50;99.90
18611;DHT22;9435;52.122;5.502;2023-06-04T08:00:55;18.60;99.90
18611;DHT22;9435;52.122;5.502;2023-06-04T08:03:22;18.50;99.90
18611;DHT22;9435;52.122;5.502;2023-06-04T08:05:50;18.50;99.90
18611;DHT22;9435;52.122;5.502;2023-06-04T08:08:17;18.70;99.90
18611;DHT22;9435;52.122;5.502;2023-06-04T08:10:45;18.80;99.90
18611;DHT22;9435;52.122;5.502;2023-06-04T08:13:12;18.90;99.90
18611;DHT22;9435;52.122;5.502;2023-06-04T08:15:39;19.10;99.90
18611;DHT22;9435;52.122;5.502;2023-06-04T08:18:06;19.40;99.90
18611;DHT22;9435;52.122;5.502;2023-06-04T08:20:34;19.50;99.90
18611;DHT22;9435;52.122;5.502;2023-06-04T08:23:01;19.40;99.90
18611;DHT22;9435;52.122;5.502;2023-06-04T08:25:28;19.40;99.90
18611;DHT22;9435;52.122;5.502;2023-06-04T08:27:58;19.80;99.90
18611;DHT22;9435;52.122;5.502;2023-06-04T08:30:25;19.40;99.90
18611;DHT22;9435;52.122;5.502;2023-06-04T08:32:53;19.70;99.90
18611;DHT22;9435;52.122;5.502;2023-06-04T08:35:20;19.80;99.90
18611;DHT22;9435;52.122;5.502;2023-06-04T08:37:47;19.50;99.90
18611;DHT22;9435;52.122;5.502;2023-06-04T08:40:14;19.60;99.90
18611;DHT22;9435;52.122;5.502;2023-06-04T08:42:42;19.70;99.90
18611;DHT22;9435;52.122;5.502;2023-06-04T08:45:13;19.70;99.90
18611;DHT22;9435;52.122;5.502;2023-06-04T08:47:43;19.80;99.90
18611;DHT22;9435;52.122;5.502;2023-06-04T08:50:12;20.00;99.90
18611;DHT22;9435;52.122;5.502;2023-06-04T08:52:41;20.30;99.90
18611;DHT22;9435;52.122;5.502;2023-06-04T08:55:11;20.70;99.90
18611;DHT22;9435;52.122;5.502;2023-06-04T08:57:44;21.10;99.90
18611;DHT22;9435;52.122;5.502;2023-06-04T09:00:14;21.00;99.90
18611;DHT22;9435;52.122;5.502;2023-06-04T09:02:43;20.80;99.90
18611;DHT22;9435;52.122;5.502;2023-06-04T09:05:17;21.20;99.90
18611;DHT22;9435;52.122;5.502;2023-06-04T09:07:46;21.10;99.90
18611;DHT22;9435;52.122;5.502;2023-06-04T09:10:18;21.30;99.90
18611;DHT22;9435;52.122;5.502;2023-06-04T09:12:47;21.00;99.90
18611;DHT22;9435;52.122;5.502;2023-06-04T09:15:17;21.70;99.90
18611;DHT22;9435;52.122;5.502;2023-06-04T09:17:44;22.10;99.90
18611;DHT22;9435;52.122;5.502;2023-06-04T09:20:24;21.70;99.90
18611;DHT22;9435;52.122;5.502;2023-06-04T09:22:54;21.70;99.90
18611;DHT22;9435;52.122;5.502;2023-06-04T09:25:22;21.80;99.90
18611;DHT22;9435;52.122;5.502;2023-06-04T09:27:51;22.00;99.90
18611;DHT22;9435;52.122;5.502;2023-06-04T09:30:19;22.60;99.90
18611;DHT22;9435;52.122;5.502;2023-06-04T09:32:47;22.60;99.90
18611;DHT22;9435;52.122;5.502;2023-06-04T09:35:15;22.10;99.90
18611;DHT22;9435;52.122;5.502;2023-06-04T09:37:51;21.60;99.90
18611;DHT22;9435;52.122;5.502;2023-06-04T09:40:19;21.20;99.90
18611;DHT22;9435;52.122;5.502;2023-06-04T09:42:47;21.60;99.90
18611;DHT22;9435;52.122;5.502;2023-06-04T09:45:28;22.00;99.90
18611;DHT22;9435;52.122;5.502;2023-06-04T09:47:55;22.20;99.90
18611;DHT22;9435;52.122;5.502;2023-06-04T09:50:25;22.00;99.90
18611;DHT22;9435;52.122;5.502;2023-06-04T09:52:53;22.30;99.90
18611;DHT22;9435;52.122;5.502;2023-06-04T09:55:20;22.50;99.90
18611;DHT22;9435;52.122;5.502;2023-06-04T09:57:48;22.50;99.90
18611;DHT22;9435;52.122;5.502;2023-06-04T10:00:17;22.20;99.90
18611;DHT22;9435;52.122;5.502;2023-06-04T10:02:48;22.30;99.90
18611;DHT22;9435;52.122;5.502;2023-06-04T10:05:16;22.20;99.90
18611;DHT22;9435;52.122;5.502;2023-06-04T10:07:50;22.50;99.90
18611;DHT22;9435;52.122;5.502;2023-06-04T10:10:21;22.50;99.90
18611;DHT22;9435;52.122;5.502;2023-06-04T10:12:53;22.40;99.90
18611;DHT22;9435;52.122;5.502;2023-06-04T10:15:21;22.70;99.90
18611;DHT22;9435;52.122;5.502;2023-06-04T10:17:50;22.80;99.90
18611;DHT22;9435;52.122;5.502;2023-06-04T10:20:18;22.50;99.90
18611;DHT22;9435;52.122;5.502;2023-06-04T10:22:48;22.60;99.90
18611;DHT22;9435;52.122;5.502;2023-06-04T10:25:16;22.90;99.90
18611;DHT22;9435;52.122;5.502;2023-06-04T10:27:45;23.20;99.90
18611;DHT22;9435;52.122;5.502;2023-06-04T10:30:13;23.70;99.90
18611;DHT22;9435;52.122;5.502;2023-06-04T10:32:40;24.50;99.90
18611;DHT22;9435;52.122;5.502;2023-06-04T10:35:09;23.80;99.90
18611;DHT22;9435;52.122;5.502;2023-06-04T10:37:37;23.60;99.90
18611;DHT22;9435;52.122;5.502;2023-06-04T10:40:06;23.20;99.90
18611;DHT22;9435;52.122;5.502;2023-06-04T10:42:38;23.10;99.90
18611;DHT22;9435;52.122;5.502;2023-06-04T10:45:09;23.10;99.90
18611;DHT22;9435;52.122;5.502;2023-06-04T10:47:37;23.40;99.90
18611;DHT22;9435;52.122;5.502;2023-06-04T10:50:12;23.30;99.90
18611;DHT22;9435;52.122;5.502;2023-06-04T10:52:51;23.20;99.90
18611;DHT22;9435;52.122;5.502;2023-06-04T10:55:18;23.20;99.90
18611;DHT22;9435;52.122;5.502;2023-06-04T10:57:51;22.80;99.90
18611;DHT22;9435;52.122;5.502;2023-06-04T11:00:21;23.30;99.90
18611;DHT22;9435;52.122;5.502;2023-06-04T11:02:51;23.20;99.90
18611;DHT22;9435;52.122;5.502;2023-06-04T11:05:20;23.90;99.90
18611;DHT22;9435;52.122;5.502;2023-06-04T11:07:48;24.50;99.90
18611;DHT22;9435;52.122;5.502;2023-06-04T11:10:16;23.90;99.90
18611;DHT22;9435;52.122;5.502;2023-06-04T11:12:45;24.10;99.90
18611;DHT22;9435;52.122;5.502;2023-06-04T11:15:12;24.00;99.90
18611;DHT22;9435;52.122;5.502;2023-06-04T11:17:51;23.60;99.90
18611;DHT22;9435;52.122;5.502;2023-06-04T11:20:20;23.20;99.90
18611;DHT22;9435;52.122;5.502;2023-06-04T11:22:51;23.50;99.90
18611;DHT22;9435;52.122;5.502;2023-06-04T11:25:19;24.20;99.90
18611;DHT22;9435;52.122;5.502;2023-06-04T11:27:48;23.90;99.90
18611;DHT22;9435;52.122;5.502;2023-06-04T11:30:16;24.00;99.90
18611;DHT22;9435;52.122;5.502;2023-06-04T11:32:43;24.40;99.90
18611;DHT22;9435;52.122;5.502;2023-06-04T11:35:10;25.00;99.90
18611;DHT22;9435;52.122;5.502;2023-06-04T11:37:39;25.40;99.90
18611;DHT22;9435;52.122;5.502;2023-06-04T11:40:16;25.50;99.90
18611;DHT22;9435;52.122;5.502;2023-06-04T11:42:45;24.60;99.90
18611;DHT22;9435;52.122;5.502;2023-06-04T11:45:13;24.10;99.90
18611;DHT22;9435;52.122;5.502;2023-06-04T11:47:41;23.80;99.90
18611;DHT22;9435;52.122;5.502;2023-06-04T11:50:11;23.30;99.90
18611;DHT22;9435;52.122;5.502;2023-06-04T11:52:40;23.60;99.90
18611;DHT22;9435;52.122;5.502;2023-06-04T11:55:08;23.80;99.90
18611;DHT22;9435;52.122;5.502;2023-06-04T11:57:37;24.50;99.90
18611;DHT22;9435;52.122;5.502;2023-06-04T12:00:05;24.70;99.90
18611;DHT22;9435;52.122;5.502;2023-06-04T12:02:35;24.40;99.90
18611;DHT22;9435;52.122;5.502;2023-06-04T12:05:13;24.40;99.90
18611;DHT22;9435;52.122;5.502;2023-06-04T12:07:42;23.80;99.90
18611;DHT22;9435;52.122;5.502;2023-06-04T12:10:09;23.80;99.90
18611;DHT22;9435;52.122;5.502;2023-06-04T12:12:37;24.20;99.90
18611;DHT22;9435;52.122;5.502;2023-06-04T12:15:06;23.90;99.90
18611;DHT22;9435;52.122;5.502;2023-06-04T12:17:35;24.10;99.90
18611;DHT22;9435;52.122;5.502;2023-06-04T12:20:03;24.30;99.90
18611;DHT22;9435;52.122;5.502;2023-06-04T12:22:31;24.70;99.90
18611;DHT22;9435;52.122;5.502;2023-06-04T12:25:00;25.10;99.90
18611;DHT22;9435;52.122;5.502;2023-06-04T12:27:28;25.70;99.90
18611;DHT22;9435;52.122;5.502;2023-06-04T12:29:58;25.60;99.90
18611;DHT22;9435;52.122;5.502;2023-06-04T12:32:26;25.00;99.90
18611;DHT22;9435;52.122;5.502;2023-06-04T12:34:53;24.70;99.90
18611;DHT22;9435;52.122;5.502;2023-06-04T12:37:21;24.70;99.90
18611;DHT22;9435;52.122;5.502;2023-06-04T12:39:48;24.70;99.90
18611;DHT22;9435;52.122;5.502;2023-06-04T12:42:18;25.50;99.90
18611;DHT22;9435;52.122;5.502;2023-06-04T12:44:45;25.10;99.90
18611;DHT22;9435;52.122;5.502;2023-06-04T12:47:13;24.70;99.90
18611;DHT22;9435;52.122;5.502;2023-06-04T12:49:40;24.10;99.90
18611;DHT22;9435;52.122;5.502;2023-06-04T12:52:07;24.30;99.90
18611;DHT22;9435;52.122;5.502;2023-06-04T12:54:34;24.50;99.90
18611;DHT22;9435;52.122;5.502;2023-06-04T12:57:01;24.40;99.90
18611;DHT22;9435;52.122;5.502;2023-06-04T12:59:30;24.50;99.90
18611;DHT22;9435;52.122;5.502;2023-06-04T13:01:57;24.90;99.90
18611;DHT22;9435;52.122;5.502;2023-06-04T13:04:24;25.30;99.90
18611;DHT22;9435;52.122;5.502;2023-06-04T13:06:51;24.70;99.90
18611;DHT22;9435;52.122;5.502;2023-06-04T13:09:21;25.00;99.90
18611;DHT22;9435;52.122;5.502;2023-06-04T13:11:48;24.30;99.90
18611;DHT22;9435;52.122;5.502;2023-06-04T13:14:15;24.70;99.90
18611;DHT22;9435;52.122;5.502;2023-06-04T13:16:44;25.10;99.90
18611;DHT22;9435;52.122;5.502;2023-06-04T13:19:14;24.80;99.90
18611;DHT22;9435;52.122;5.502;2023-06-04T13:21:41;24.90;99.90
18611;DHT22;9435;52.122;5.502;2023-06-04T13:24:10;23.80;99.90
18611;DHT22;9435;52.122;5.502;2023-06-04T13:26:37;23.60;99.90
18611;DHT22;9435;52.122;5.502;2023-06-04T13:29:04;23.70;99.90
18611;DHT22;9435;52.122;5.502;2023-06-04T13:31:31;23.80;99.90
18611;DHT22;9435;52.122;5.502;2023-06-04T13:33:59;24.40;99.90
18611;DHT22;9435;52.122;5.502;2023-06-04T13:36:26;24.80;99.90
18611;DHT22;9435;52.122;5.502;2023-06-04T13:38:54;25.20;99.90
18611;DHT22;9435;52.122;5.502;2023-06-04T13:41:21;24.90;99.90
18611;DHT22;9435;52.122;5.502;2023-06-04T13:43:48;24.70;99.90
18611;DHT22;9435;52.122;5.502;2023-06-04T13:46:15;24.40;99.90
18611;DHT22;9435;52.122;5.502;2023-06-04T13:48:42;24.50;99.90
18611;DHT22;9435;52.122;5.502;2023-06-04T13:51:11;23.90;99.90
18611;DHT22;9435;52.122;5.502;2023-06-04T13:53:38;23.70;99.90
18611;DHT22;9435;52.122;5.502;2023-06-04T13:56:05;23.30;99.90
18611;DHT22;9435;52.122;5.502;2023-06-04T13:58:32;23.40;99.90
18611;DHT22;9435;52.122;5.502;2023-06-04T14:00:59;23.20;99.90
18611;DHT22;9435;52.122;5.502;2023-06-04T14:03:27;23.60;99.90
18611;DHT22;9435;52.122;5.502;2023-06-04T14:05:54;24.20;99.90
18611;DHT22;9435;52.122;5.502;2023-06-04T14:08:22;24.30;99.90
18611;DHT22;9435;52.122;5.502;2023-06-04T14:10:49;24.40;99.90
18611;DHT22;9435;52.122;5.502;2023-06-04T14:13:17;24.50;99.90
18611;DHT22;9435;52.122;5.502;2023-06-04T14:15:44;24.70;99.90
18611;DHT22;9435;52.122;5.502;2023-06-04T14:18:11;24.50;99.90
18611;DHT22;9435;52.122;5.502;2023-06-04T14:20:38;24.20;99.90
18611;DHT22;9435;52.122;5.502;2023-06-04T14:23:05;23.90;99.90
18611;DHT22;9435;52.122;5.502;2023-06-04T14:25:34;23.60;99.90
18611;DHT22;9435;52.122;5.502;2023-06-04T14:28:02;23.10;99.90
18611;DHT22;9435;52.122;5.502;2023-06-04T14:30:29;23.10;99.90
18611;DHT22;9435;52.122;5.502;2023-06-04T14:32:56;23.60;99.90
18611;DHT22;9435;52.122;5.502;2023-06-04T14:35:23;23.40;99.90
18611;DHT22;9435;52.122;5.502;2023-06-04T14:37:50;23.50;99.90
18611;DHT22;9435;52.122;5.502;2023-06-04T14:40:17;23.60;99.90
18611;DHT22;9435;52.122;5.502;2023-06-04T14:42:46;23.80;99.90
18611;DHT22;9435;52.122;5.502;2023-06-04T14:45:13;23.70;99.90
18611;DHT22;9435;52.122;5.502;2023-06-04T14:47:40;23.40;99.90
18611;DHT22;9435;52.122;5.502;2023-06-04T14:50:07;23.50;99.90
18611;DHT22;9435;52.122;5.502;2023-06-04T14:52:34;23.50;99.90
18611;DHT22;9435;52.122;5.502;2023-06-04T14:55:01;23.20;99.90
18611;DHT22;9435;52.122;5.502;2023-06-04T14:57:28;23.30;99.90
18611;DHT22;9435;52.122;5.502;2023-06-04T14:59:57;23.40;99.90
18611;DHT22;9435;52.122;5.502;2023-06-04T15:02:24;23.30;99.90
18611;DHT22;9435;52.122;5.502;2023-06-04T15:04:51;23.00;99.90
18611;DHT22;9435;52.122;5.502;2023-06-04T15:07:18;22.70;99.90
18611;DHT22;9435;52.122;5.502;2023-06-04T15:09:45;22.70;99.90
18611;DHT22;9435;52.122;5.502;2023-06-04T15:12:13;22.90;99.90
18611;DHT22;9435;52.122;5.502;2023-06-04T15:14:41;22.80;99.90
18611;DHT22;9435;52.122;5.502;2023-06-04T15:17:10;23.10;99.90
18611;DHT22;9435;52.122;5.502;2023-06-04T15:19:37;22.60;99.90
18611;DHT22;9435;52.122;5.502;2023-06-04T15:22:04;22.70;99.90
18611;DHT22;9435;52.122;5.502;2023-06-04T15:24:31;23.00;99.90
18611;DHT22;9435;52.122;5.502;2023-06-04T15:26:59;22.80;99.90
18611;DHT22;9435;52.122;5.502;2023-06-04T15:29:26;22.80;99.90
18611;DHT22;9435;52.122;5.502;2023-06-04T15:31:53;22.50;99.90
18611;DHT22;9435;52.122;5.502;2023-06-04T15:34:21;22.60;99.90
18611;DHT22;9435;52.122;5.502;2023-06-04T15:36:48;22.50;99.90
18611;DHT22;9435;52.122;5.502;2023-06-04T15:39:15;22.50;99.90
18611;DHT22;9435;52.122;5.502;2023-06-04T15:41:42;22.60;99.90
18611;DHT22;9435;52.122;5.502;2023-06-04T15:44:10;22.70;99.90
18611;DHT22;9435;52.122;5.502;2023-06-04T15:46:37;22.70;99.90
18611;DHT22;9435;52.122;5.502;2023-06-04T15:49:05;22.10;99.90
18611;DHT22;9435;52.122;5.502;2023-06-04T15:51:35;22.50;99.90
18611;DHT22;9435;52.122;5.502;2023-06-04T15:54:03;22.70;99.90